createdAt,value
2017-11-29T00:02:13.142Z,32.63
2017-11-29T00:04:47.899Z,38.80
2017-11-29T00:07:22.813Z,34.97
2017-11-29T00:09:57.741Z,37.00
2017-11-29T00:12:32.597Z,36.07
2017-11-29T00:15:07.330Z,31.20
2017-11-29T00:17:42.258Z,30.20
2017-11-29T00:20:16.709Z,31.93
2017-11-29T00:22:51.693Z,34.37
2017-11-29T00:25:26.215Z,32.20
2017-11-29T00:28:01.453Z,29.87
2017-11-29T00:30:36.045Z,33.10
2017-11-29T00:33:11.031Z,39.50
2017-11-29T00:35:45.605Z,37.00
2017-11-29T00:38:20.478Z,34.63
2017-11-29T00:40:55.137Z,36.63
2017-11-29T00:43:30.370Z,35.07
2017-11-29T00:46:04.785Z,39.37
2017-11-29T00:48:39.849Z,28.47
2017-11-29T00:51:14.652Z,38.80
2017-11-29T00:53:49.226Z,36.17
2017-11-29T00:56:24.165Z,35.70
2017-11-29T00:58:58.721Z,36.03
2017-11-29T01:01:33.447Z,35.67
2017-11-29T01:04:08.104Z,36.33
2017-11-29T01:06:42.917Z,36.37
2017-11-29T01:09:17.617Z,28.33
2017-11-29T01:11:52.449Z,34.43
2017-11-29T01:14:27.373Z,39.43
2017-11-29T01:17:02.105Z,33.73
2017-11-29T01:19:36.934Z,43.10
2017-11-29T01:22:11.810Z,29.97
2017-11-29T01:24:46.769Z,29.77
2017-11-29T01:27:21.870Z,34.83
2017-11-29T01:29:56.666Z,30.17
2017-11-29T01:32:31.518Z,40.00
2017-11-29T01:35:06.653Z,36.37
2017-11-29T01:37:41.513Z,34.30
2017-11-29T01:40:16.109Z,44.23
2017-11-29T01:42:51.365Z,35.63
2017-11-29T01:45:26.209Z,37.37
2017-11-29T01:48:00.866Z,41.93
2017-11-29T01:50:36.081Z,41.30
2017-11-29T01:53:11.238Z,34.97
2017-11-29T01:55:46.258Z,34.40
2017-11-29T01:58:21.051Z,32.67
2017-11-29T02:00:55.698Z,30.63
2017-11-29T02:03:30.398Z,34.93
2017-11-29T02:06:16.347Z,35.73
2017-11-29T02:08:50.829Z,33.00
2017-11-29T02:11:25.735Z,35.63
2017-11-29T02:14:00.657Z,34.60
2017-11-29T02:16:35.643Z,35.07
2017-11-29T02:19:10.647Z,31.03
2017-11-29T02:21:45.249Z,38.07
2017-11-29T02:24:19.869Z,41.23
2017-11-29T02:26:54.550Z,36.07
2017-11-29T02:29:29.153Z,33.80
2017-11-29T02:32:03.650Z,36.73
2017-11-29T02:34:38.654Z,40.80
2017-11-29T02:37:13.366Z,33.07
2017-11-29T02:39:59.458Z,36.03
2017-11-29T02:42:41.937Z,36.13
2017-11-29T02:45:16.334Z,35.23
2017-11-29T02:47:51.213Z,30.53
2017-11-29T02:50:25.970Z,32.07
2017-11-29T02:53:00.825Z,36.07
2017-11-29T02:55:35.246Z,23.77
2017-11-29T02:58:10.205Z,35.07
2017-11-29T03:00:44.927Z,38.90
2017-11-29T03:03:20.222Z,30.27
2017-11-29T03:05:54.885Z,38.60
2017-11-29T03:08:30.168Z,40.57
2017-11-29T03:11:05.106Z,37.83
2017-11-29T03:13:39.617Z,43.07
2017-11-29T03:16:14.757Z,42.50
2017-11-29T03:18:49.610Z,37.07
2017-11-29T03:21:24.300Z,38.13
2017-11-29T03:23:59.092Z,39.40
2017-11-29T03:26:33.757Z,35.17
2017-11-29T03:29:08.549Z,37.87
2017-11-29T03:31:43.550Z,43.13
2017-11-29T03:34:18.252Z,42.37
2017-11-29T03:36:53.185Z,43.90
2017-11-29T03:39:28.166Z,38.30
2017-11-29T03:42:03.064Z,41.50
2017-11-29T03:44:38.161Z,37.87
2017-11-29T03:47:13.098Z,35.70
2017-11-29T03:49:47.873Z,49.20
2017-11-29T03:52:22.809Z,41.83
2017-11-29T03:54:57.629Z,39.80
2017-11-29T03:57:32.563Z,37.27
2017-11-29T04:00:07.386Z,36.70
2017-11-29T04:02:42.415Z,41.57
2017-11-29T04:05:17.546Z,37.27
2017-11-29T04:07:52.422Z,42.17
2017-11-29T04:10:26.864Z,45.30
2017-11-29T04:13:01.881Z,44.00
2017-11-29T04:15:37.004Z,45.67
2017-11-29T04:18:11.609Z,41.03
2017-11-29T04:20:46.337Z,44.83
2017-11-29T04:23:21.147Z,41.30
2017-11-29T04:25:56.222Z,38.67
2017-11-29T04:28:30.722Z,41.93
2017-11-29T04:31:05.722Z,45.33
2017-11-29T04:33:40.507Z,44.37
2017-11-29T04:36:15.558Z,51.13
2017-11-29T04:38:50.333Z,44.63
2017-11-29T04:41:25.236Z,45.03
2017-11-29T04:43:59.904Z,43.83
2017-11-29T04:46:34.870Z,43.40
2017-11-29T04:49:09.405Z,42.53
2017-11-29T04:51:44.325Z,47.80
2017-11-29T04:54:19.318Z,43.70
2017-11-29T04:56:54.113Z,42.70
2017-11-29T04:59:28.479Z,42.47
2017-11-29T05:02:03.313Z,49.17
2017-11-29T05:04:37.810Z,42.00
2017-11-29T05:07:12.662Z,44.23
2017-11-29T05:09:47.442Z,43.80
2017-11-29T05:12:21.542Z,48.13
2017-11-29T05:14:56.571Z,43.93
2017-11-29T05:17:31.085Z,41.70
2017-11-29T05:20:05.748Z,46.53
2017-11-29T05:22:40.681Z,52.20
2017-11-29T05:25:15.361Z,43.57
2017-11-29T05:27:50.425Z,48.73
2017-11-29T05:30:25.230Z,44.37
2017-11-29T05:32:59.885Z,45.70
2017-11-29T05:35:34.618Z,48.67
2017-11-29T05:38:09.222Z,50.97
2017-11-29T05:40:43.903Z,46.93
2017-11-29T05:43:18.594Z,48.90
2017-11-29T05:45:53.354Z,53.27
2017-11-29T05:48:27.928Z,52.37
2017-11-29T05:51:02.546Z,52.27
2017-11-29T05:53:37.281Z,52.47
2017-11-29T05:56:12.075Z,45.80
2017-11-29T05:58:47.285Z,49.87
2017-11-29T06:01:21.658Z,54.50
2017-11-29T06:03:56.264Z,49.30
2017-11-29T06:06:31.059Z,48.20
2017-11-29T06:09:05.842Z,45.40
2017-11-29T06:11:40.595Z,41.00
2017-11-29T06:14:15.426Z,47.93
2017-11-29T06:16:50.097Z,71.50
2017-11-29T06:19:25.207Z,60.13
2017-11-29T06:21:59.589Z,57.60
2017-11-29T06:24:34.595Z,50.80
2017-11-29T06:27:09.421Z,44.43
2017-11-29T06:29:44.024Z,51.33
2017-11-29T06:32:19.279Z,50.00
2017-11-29T06:34:54.406Z,43.40
2017-11-29T06:37:29.165Z,41.27
2017-11-29T06:40:03.942Z,48.03
2017-11-29T06:42:38.786Z,46.73
2017-11-29T06:45:13.405Z,49.30
2017-11-29T06:47:48.065Z,40.93
2017-11-29T06:50:23.087Z,43.93
2017-11-29T06:52:57.638Z,45.20
2017-11-29T06:55:32.665Z,43.00
2017-11-29T06:58:07.366Z,43.57
2017-11-29T07:00:42.150Z,47.00
2017-11-29T07:03:16.955Z,52.60
2017-11-29T07:05:51.726Z,42.37
2017-11-29T07:08:26.779Z,42.90
2017-11-29T07:11:01.606Z,42.33
2017-11-29T07:13:36.662Z,42.33
2017-11-29T07:16:11.220Z,45.90
2017-11-29T07:18:45.535Z,42.17
2017-11-29T07:21:20.790Z,39.47
2017-11-29T07:23:55.621Z,37.63
2017-11-29T07:26:30.145Z,39.47
2017-11-29T07:29:05.258Z,41.70
2017-11-29T07:31:40.715Z,48.60
2017-11-29T07:34:15.185Z,49.20
2017-11-29T07:36:50.052Z,42.37
2017-11-29T07:39:27.938Z,44.47
2017-11-29T07:42:02.715Z,51.10
2017-11-29T07:44:37.898Z,48.13
2017-11-29T07:47:12.721Z,42.20
2017-11-29T07:49:47.377Z,43.87
2017-11-29T07:52:22.206Z,48.33
2017-11-29T07:54:57.043Z,45.37
2017-11-29T07:57:31.662Z,51.33
2017-11-29T08:00:06.694Z,56.63
2017-11-29T08:02:41.604Z,44.17
2017-11-29T08:05:16.459Z,47.43
2017-11-29T08:07:51.489Z,51.90
2017-11-29T08:10:26.007Z,49.57
2017-11-29T08:13:00.834Z,51.07
2017-11-29T08:15:35.666Z,54.30
2017-11-29T08:18:10.435Z,58.03
2017-11-29T08:20:45.434Z,52.67
2017-11-29T08:23:20.154Z,55.43
2017-11-29T08:25:54.549Z,52.17
2017-11-29T08:28:29.231Z,46.27
2017-11-29T08:31:03.418Z,45.37
2017-11-29T08:33:38.417Z,46.93
2017-11-29T08:36:12.862Z,46.27
2017-11-29T08:38:47.578Z,52.50
2017-11-29T08:41:22.166Z,52.03
2017-11-29T08:43:57.050Z,53.77
2017-11-29T08:46:31.278Z,51.50
2017-11-29T08:49:06.303Z,47.97
2017-11-29T08:51:41.733Z,51.17
2017-11-29T08:54:16.698Z,55.23
2017-11-29T08:56:51.233Z,58.40
2017-11-29T08:59:26.234Z,53.50
2017-11-29T09:02:01.085Z,60.63
2017-11-29T09:04:35.894Z,58.83
2017-11-29T09:07:10.774Z,52.47
2017-11-29T09:09:45.425Z,52.20
2017-11-29T09:12:20.202Z,48.73
2017-11-29T09:14:55.133Z,38.30
2017-11-29T09:17:29.474Z,45.53
2017-11-29T09:20:04.510Z,50.20
2017-11-29T09:22:39.761Z,46.30
2017-11-29T09:25:14.452Z,54.13
2017-11-29T09:27:49.118Z,42.80
2017-11-29T09:30:23.837Z,51.43
2017-11-29T09:32:58.646Z,51.77
2017-11-29T09:35:33.307Z,45.97
2017-11-29T09:38:08.962Z,45.77
2017-11-29T09:40:43.682Z,42.97
2017-11-29T09:43:18.291Z,48.10
2017-11-29T09:45:52.915Z,35.83
2017-11-29T09:48:27.651Z,46.73
2017-11-29T09:51:02.498Z,40.80
2017-11-29T09:53:37.250Z,46.57
2017-11-29T09:56:11.882Z,43.70
2017-11-29T09:58:46.562Z,43.90
2017-11-29T10:01:21.434Z,49.97
2017-11-29T10:03:55.902Z,54.73
2017-11-29T10:06:30.561Z,44.80
2017-11-29T10:09:05.133Z,43.83
2017-11-29T10:11:39.894Z,43.07
2017-11-29T10:14:16.784Z,45.97
2017-11-29T10:16:51.390Z,43.57
2017-11-29T10:19:25.734Z,43.03
2017-11-29T10:22:00.046Z,47.00
2017-11-29T10:24:34.631Z,49.80
2017-11-29T10:27:09.207Z,46.80
2017-11-29T10:29:43.549Z,50.00
2017-11-29T10:32:18.295Z,51.30
2017-11-29T10:34:53.117Z,47.80
2017-11-29T10:37:27.416Z,36.87
2017-11-29T10:40:02.018Z,41.47
2017-11-29T10:42:36.832Z,42.37
2017-11-29T10:45:11.645Z,27.83
2017-11-29T10:47:46.226Z,33.30
2017-11-29T10:50:21.107Z,35.40
2017-11-29T10:52:55.858Z,39.33
2017-11-29T10:55:30.657Z,45.50
2017-11-29T10:58:05.550Z,49.13
2017-11-29T11:00:40.322Z,43.40
2017-11-29T11:03:14.630Z,37.43
2017-11-29T11:05:49.163Z,39.63
2017-11-29T11:08:23.902Z,36.50
2017-11-29T11:10:58.510Z,38.87
2017-11-29T11:13:32.938Z,41.20
2017-11-29T11:16:07.790Z,45.00
2017-11-29T11:18:42.316Z,40.73
2017-11-29T11:21:17.111Z,42.33
2017-11-29T11:23:51.440Z,48.77
2017-11-29T11:26:26.597Z,37.93
2017-11-29T11:29:00.615Z,35.57
2017-11-29T11:31:35.326Z,31.03
2017-11-29T11:34:09.779Z,37.23
2017-11-29T11:36:44.597Z,37.70
2017-11-29T11:39:19.318Z,37.13
2017-11-29T11:41:54.005Z,39.13
2017-11-29T11:44:27.937Z,40.80
2017-11-29T11:47:01.919Z,42.07
2017-11-29T11:49:36.386Z,43.60
2017-11-29T11:52:11.264Z,48.27
2017-11-29T11:54:45.898Z,41.50
2017-11-29T11:57:20.400Z,46.13
2017-11-29T11:59:55.322Z,45.30
2017-11-29T12:02:30.047Z,40.50
2017-11-29T12:05:05.059Z,50.70
2017-11-29T12:07:39.850Z,37.07
2017-11-29T12:10:14.533Z,37.90
2017-11-29T12:12:49.317Z,40.63
2017-11-29T12:15:24.163Z,49.43
2017-11-29T12:17:58.856Z,39.60
2017-11-29T12:20:32.942Z,45.60
2017-11-29T12:23:07.890Z,51.10
2017-11-29T12:25:42.702Z,51.80
2017-11-29T12:28:17.506Z,40.33
2017-11-29T12:30:52.239Z,46.40
2017-11-29T12:33:26.912Z,47.20
2017-11-29T12:36:01.615Z,36.70
2017-11-29T12:38:36.570Z,33.57
2017-11-29T12:41:11.091Z,41.73
2017-11-29T12:43:45.897Z,30.70
2017-11-29T12:46:20.479Z,34.90
2017-11-29T12:49:06.450Z,41.80
2017-11-29T12:51:41.305Z,42.00
2017-11-29T12:54:15.698Z,40.03
2017-11-29T12:56:50.681Z,41.50
2017-11-29T12:59:25.146Z,53.60
2017-11-29T13:01:59.770Z,49.93
2017-11-29T13:04:34.477Z,59.67
2017-11-29T13:07:09.270Z,34.93
2017-11-29T13:09:44.033Z,43.80
2017-11-29T13:12:19.046Z,36.30
2017-11-29T13:14:54.066Z,34.60
2017-11-29T13:17:28.559Z,34.07
2017-11-29T13:20:03.142Z,41.20
2017-11-29T13:22:38.162Z,21.57
2017-11-29T13:25:12.832Z,34.10
2017-11-29T13:27:47.464Z,32.03
2017-11-29T13:30:21.850Z,31.27
2017-11-29T13:32:55.943Z,30.20
2017-11-29T13:35:30.739Z,29.70
2017-11-29T13:38:04.833Z,26.00
2017-11-29T13:40:39.554Z,31.20
2017-11-29T13:43:14.746Z,24.90
2017-11-29T13:45:49.043Z,29.23
2017-11-29T13:48:23.774Z,34.20
2017-11-29T13:50:58.657Z,29.43
2017-11-29T13:53:33.435Z,33.13
2017-11-29T13:56:08.035Z,32.37
2017-11-29T13:58:42.768Z,33.10
2017-11-29T14:01:17.495Z,30.43
2017-11-29T14:03:52.339Z,28.23
2017-11-29T14:06:27.043Z,25.00
2017-11-29T14:09:02.007Z,31.87
2017-11-29T14:11:36.907Z,28.37
2017-11-29T14:14:11.695Z,25.50
2017-11-29T14:16:46.422Z,34.60
2017-11-29T14:19:21.446Z,25.97
2017-11-29T14:21:56.146Z,31.10
2017-11-29T14:24:30.742Z,27.43
2017-11-29T14:27:05.393Z,24.80
2017-11-29T14:29:39.954Z,30.27
2017-11-29T14:32:14.778Z,28.10
2017-11-29T14:34:49.813Z,25.93
2017-11-29T14:37:24.898Z,30.10
2017-11-29T14:39:59.631Z,31.33
2017-11-29T14:42:33.974Z,33.37
2017-11-29T14:45:08.817Z,31.83
2017-11-29T14:47:43.338Z,31.50
2017-11-29T14:50:18.319Z,31.67
2017-11-29T14:52:52.904Z,32.23
2017-11-29T14:55:27.744Z,29.03
2017-11-29T14:58:02.870Z,30.60
2017-11-29T15:00:37.805Z,30.67
2017-11-29T15:03:12.621Z,38.90
2017-11-29T15:05:47.656Z,28.00
2017-11-29T15:08:23.062Z,35.50
2017-11-29T15:10:58.334Z,35.47
2017-11-29T15:13:33.167Z,23.80
2017-11-29T15:16:09.482Z,34.57
2017-11-29T15:18:43.987Z,33.93
2017-11-29T15:21:18.610Z,39.23
2017-11-29T15:23:53.701Z,34.60
2017-11-29T15:26:28.514Z,35.43
2017-11-29T15:29:03.447Z,41.90
2017-11-29T15:31:37.942Z,36.87
2017-11-29T15:34:13.057Z,35.43
2017-11-29T15:36:47.982Z,40.97
2017-11-29T15:39:22.510Z,35.97
2017-11-29T15:41:57.366Z,37.80
2017-11-29T15:44:33.470Z,34.70
2017-11-29T15:47:08.814Z,35.97
2017-11-29T15:49:43.746Z,44.80
2017-11-29T15:52:18.343Z,42.20
2017-11-29T15:54:53.104Z,39.63
2017-11-29T15:57:28.336Z,36.73
2017-11-29T16:00:03.341Z,34.83
2017-11-29T16:02:37.866Z,40.57
2017-11-29T16:05:12.830Z,38.23
2017-11-29T16:07:47.615Z,40.37
2017-11-29T16:10:22.506Z,35.23
2017-11-29T16:12:57.191Z,39.40
2017-11-29T16:15:32.147Z,39.93
2017-11-29T16:18:06.819Z,41.37
2017-11-29T16:20:42.087Z,40.77
2017-11-29T16:23:16.378Z,37.43
2017-11-29T16:25:51.431Z,43.40
2017-11-29T16:28:25.943Z,39.30
2017-11-29T16:31:00.797Z,41.30
2017-11-29T16:33:35.745Z,46.03
2017-11-29T16:36:10.190Z,38.43
2017-11-29T16:38:45.147Z,44.87
2017-11-29T16:41:20.033Z,41.10
2017-11-29T16:43:54.881Z,56.90
2017-11-29T16:46:29.753Z,50.07
2017-11-29T16:49:04.202Z,47.47
2017-11-29T16:51:38.678Z,36.00
2017-11-29T16:54:13.712Z,25.80
2017-11-29T16:56:48.778Z,41.20
2017-11-29T16:59:23.526Z,38.63
2017-11-29T17:01:58.378Z,32.63
2017-11-29T17:04:32.686Z,38.03
2017-11-29T17:07:07.768Z,38.53
2017-11-29T17:09:42.438Z,53.13
2017-11-29T17:12:17.266Z,61.30
2017-11-29T17:14:51.577Z,44.37
2017-11-29T17:17:26.317Z,45.37
2017-11-29T17:20:01.447Z,45.20
2017-11-29T17:22:35.661Z,39.50
2017-11-29T17:25:09.818Z,38.67
2017-11-29T17:27:44.804Z,36.67
2017-11-29T17:30:19.294Z,38.43
2017-11-29T17:32:54.397Z,37.53
2017-11-29T17:35:29.634Z,33.27
2017-11-29T17:38:04.030Z,37.07
2017-11-29T17:40:39.294Z,33.70
2017-11-29T17:43:14.096Z,35.43
2017-11-29T17:45:49.104Z,33.27
2017-11-29T17:48:23.570Z,32.70
2017-11-29T17:50:58.718Z,30.30
2017-11-29T17:53:33.031Z,32.20
2017-11-29T17:56:07.962Z,32.83
2017-11-29T17:58:42.564Z,31.30
2017-11-29T18:01:17.198Z,40.73
2017-11-29T18:03:52.349Z,32.47
2017-11-29T18:06:26.874Z,32.60
2017-11-29T18:09:01.780Z,39.60
2017-11-29T18:11:36.550Z,33.37
2017-11-29T18:14:11.234Z,34.47
2017-11-29T18:16:46.114Z,35.27
2017-11-29T18:19:21.070Z,34.50
2017-11-29T18:21:55.727Z,33.17
2017-11-29T18:24:29.986Z,37.07
2017-11-29T18:27:04.613Z,33.80
2017-11-29T18:29:39.671Z,38.13
2017-11-29T18:32:14.250Z,48.80
2017-11-29T18:34:49.386Z,39.70
2017-11-29T18:37:24.314Z,35.47
2017-11-29T18:39:58.885Z,39.23
2017-11-29T18:42:34.221Z,43.70
2017-11-29T18:45:09.745Z,42.00
2017-11-29T18:47:43.970Z,50.67
2017-11-29T18:50:19.057Z,35.80
2017-11-29T18:52:54.054Z,38.07
2017-11-29T18:55:29.302Z,38.73
2017-11-29T18:58:03.779Z,52.97
2017-11-29T19:00:38.541Z,46.23
2017-11-29T19:03:13.654Z,51.57
2017-11-29T19:05:48.254Z,99.50
2017-11-29T19:08:22.817Z,48.43
2017-11-29T19:10:57.814Z,39.50
2017-11-29T19:13:33.254Z,63.77
2017-11-29T19:16:07.985Z,60.80
2017-11-29T19:18:42.430Z,47.50
2017-11-29T19:21:17.568Z,46.77
2017-11-29T19:23:52.817Z,43.67
2017-11-29T19:26:27.874Z,39.97
2017-11-29T19:29:02.534Z,49.13
2017-11-29T19:31:37.325Z,53.00
2017-11-29T19:34:11.917Z,51.00
2017-11-29T19:36:47.093Z,38.80
2017-11-29T19:39:21.799Z,41.63
2017-11-29T19:41:56.634Z,41.50
2017-11-29T19:44:31.154Z,41.37
2017-11-29T19:47:06.118Z,51.50
2017-11-29T19:49:41.137Z,42.00
2017-11-29T19:52:15.965Z,44.53
2017-11-29T19:54:50.946Z,42.80
2017-11-29T19:57:26.070Z,42.23
2017-11-29T20:00:00.838Z,50.17
2017-11-29T20:02:35.705Z,46.67
2017-11-29T20:05:10.435Z,40.20
2017-11-29T20:07:45.658Z,45.93
2017-11-29T20:10:20.706Z,46.33
2017-11-29T20:12:55.625Z,43.97
2017-11-29T20:15:29.745Z,46.97
2017-11-29T20:18:05.197Z,47.77
2017-11-29T20:20:40.250Z,43.97
2017-11-29T20:23:14.974Z,43.87
2017-11-29T20:25:49.939Z,54.33
2017-11-29T20:28:24.755Z,45.60
2017-11-29T20:30:59.913Z,43.13
2017-11-29T20:33:34.799Z,49.03
2017-11-29T20:36:09.849Z,43.53
2017-11-29T20:38:44.566Z,41.20
2017-11-29T20:41:19.370Z,44.67
2017-11-29T20:43:54.225Z,43.57
2017-11-29T20:46:29.073Z,42.70
2017-11-29T20:49:03.905Z,54.87
2017-11-29T20:51:39.033Z,44.20
2017-11-29T20:54:13.837Z,47.33
2017-11-29T20:56:48.994Z,41.60
2017-11-29T20:59:23.937Z,49.43
2017-11-29T21:01:59.173Z,44.87
2017-11-29T21:04:34.222Z,45.17
2017-11-29T21:07:09.402Z,55.57
2017-11-29T21:09:44.102Z,42.30
2017-11-29T21:12:18.647Z,50.93
2017-11-29T21:14:54.137Z,56.60
2017-11-29T21:17:28.629Z,47.67
2017-11-29T21:20:03.693Z,53.00
2017-11-29T21:22:38.317Z,52.97
2017-11-29T21:25:12.856Z,59.00
2017-11-29T21:27:47.898Z,54.10
2017-11-29T21:30:22.609Z,54.97
2017-11-29T21:32:57.595Z,55.03
2017-11-29T21:35:32.208Z,55.73
2017-11-29T21:38:07.240Z,54.63
2017-11-29T21:40:42.053Z,52.07
2017-11-29T21:43:17.393Z,62.37
2017-11-29T21:45:52.302Z,58.63
2017-11-29T21:48:26.688Z,54.90
2017-11-29T21:51:01.158Z,62.57
2017-11-29T21:53:36.192Z,51.70
2017-11-29T21:56:11.140Z,58.67
2017-11-29T21:58:45.746Z,56.90
2017-11-29T22:01:20.628Z,59.77
2017-11-29T22:03:55.342Z,62.60
2017-11-29T22:06:30.070Z,66.23
2017-11-29T22:09:04.353Z,66.20
2017-11-29T22:11:39.483Z,54.83
2017-11-29T22:14:14.233Z,65.37
2017-11-29T22:16:49.112Z,47.27
2017-11-29T22:19:24.081Z,63.23
2017-11-29T22:21:58.585Z,72.23
2017-11-29T22:24:33.524Z,60.13
2017-11-29T22:27:07.891Z,57.80
2017-11-29T22:29:42.697Z,53.00
2017-11-29T22:32:17.734Z,55.10
2017-11-29T22:34:52.510Z,59.20
2017-11-29T22:37:27.463Z,60.47
2017-11-29T22:40:02.577Z,68.50
2017-11-29T22:42:37.409Z,58.20
2017-11-29T22:45:12.237Z,64.57
2017-11-29T22:47:46.946Z,65.17
2017-11-29T22:50:21.869Z,65.93
2017-11-29T22:52:56.707Z,67.17
2017-11-29T22:55:31.526Z,62.37
2017-11-29T22:58:06.682Z,57.87
2017-11-29T23:00:41.811Z,77.33
2017-11-29T23:03:16.273Z,71.77
2017-11-29T23:05:51.304Z,61.43
2017-11-29T23:08:25.941Z,57.57
2017-11-29T23:11:00.919Z,77.97
2017-11-29T23:13:35.831Z,78.73
2017-11-29T23:16:10.809Z,65.00
2017-11-29T23:18:45.289Z,67.60
2017-11-29T23:21:20.242Z,63.43
2017-11-29T23:23:54.626Z,78.63
2017-11-29T23:26:29.535Z,70.53
2017-11-29T23:29:04.248Z,72.03
2017-11-29T23:31:39.266Z,71.47
2017-11-29T23:34:13.976Z,71.80
2017-11-29T23:36:49.030Z,73.40
2017-11-29T23:39:23.703Z,73.40
2017-11-29T23:41:58.734Z,69.33
2017-11-29T23:44:33.421Z,70.83
2017-11-29T23:47:08.185Z,85.23
2017-11-29T23:49:42.885Z,77.47
2017-11-29T23:52:17.518Z,57.03
2017-11-29T23:54:52.341Z,65.27
2017-11-29T23:57:26.841Z,67.13
